Airfield :
LOGIN :

Register | Disclaimer

   EN    FR    IT 

 










Legend :    VFR   Marginal VFR   IFR   Intensive IFR   Very Intensive IFR
Visi :
Ceiling :
>= 8 km
>= 3000ft
5 to 8 km
1000 to 3000 ft
1500m to 5 km
500 to 1000 ft
800 to 1500m
200 to 500 ft
< 800m
< 200 ft
Symbols :   Thunderstorms  Fog  Heavy snow  Heavy precipitations  Wind > 20 kt
SIGMETs :     Misc.  Thunderstorms  Icing  Turbulence  Mountain Waves  Volcanic Ashes







- Airport Elevation : 235 ft
- IATA code : BZG


EPBY - Bydgoszcz

CURRENT METAR :
  • 190430Z VRB01KT 1800 BR NSC M01/M01 Q1013

EXPIRED METARs :
  • 190400Z VRB01KT 0800 R26/1700D FZFG NSC M03/M04 Q1013
  • 190330Z VRB01KT 0600 R26/P2000N FZFG NSC M03/M03 Q1013
  • 190300Z VRB02KT 0200 R26/1300U FZFG NSC M02/M03 Q1013
  • 190230Z VRB01KT 0200 R26/0500U FZFG NSC M03/M03 Q1014
  • 190200Z VRB01KT 0400 R26/1300D FZFG NSC M02/M02 Q1014

TAF TAF EPBY
Valid from the 19 at 00:00 until the 20 at 00:00 UTC


182330Z 1900/1924 15006KT 0800 FZFG NSC
TEMPO 1900/1906 0150 FZFG OVC001
BECMG 1903/1906 2000 BR
BECMG 1906/1908 21010KT CAVOK
BECMG 1912/1914 27012KT -RA BKN012
PROB40
TEMPO 1914/1924 -SHRA BKN008 BKN010CB
No reported NOTAMs for that airfield.



MET'MAP, your aeronautical weather chart ! - Copyright ORBIFLY December 2007 - Disclaimer

ORBIFLY MET'MAP TEAM :

Programming & Development : Alexandra Zaïnal
Concept & Development : Baudouin d'Aumeries
Co-Development & Prog : Marc-Olivier Méhu
Technical & hardware support : Manuel Goepfert

Contact : metmap@orbifly.com




SOURCES & CREDITS :

   NOAA